Time;durP1;ratioP1;P1;durP2;ratioP2;P2;SDS_P1;SDS_P2;PMS_P1;PMS_P2;Temp;Humidity;BMP_temperature;BMP_pressure;BME280_temperature;BME280_humidity;BME280_pressure;Samples;Min_cycle;Max_cycle;Signal;HPM_P1;HPM_P2
2023/04/08 00:01:02;;;;;;;7.20;3.58;;;;;;;7.05;61.19;100931.16;5069874;28;20040;-51
2023/04/08 00:03:29;;;;;;;7.28;3.92;;;;;;;7.03;60.69;100929.38;5071210;28;20056;-54
2023/04/08 00:05:56;;;;;;;7.68;3.90;;;;;;;6.98;61.59;100933.53;5060323;28;20128;-50
2023/04/08 00:08:23;;;;;;;8.40;3.53;;;;;;;6.96;60.80;100941.25;5061707;28;20117;-53
2023/04/08 00:10:49;;;;;;;7.88;3.72;;;;;;;6.96;61.47;100940.34;5065157;28;20075;-53
2023/04/08 00:13:16;;;;;;;7.72;4.40;;;;;;;6.92;60.43;100929.97;5066015;28;20084;-52
2023/04/08 00:15:43;;;;;;;7.13;3.90;;;;;;;6.90;61.44;100931.66;5066184;28;20389;-52
2023/04/08 00:18:09;;;;;;;7.47;3.63;;;;;;;6.87;61.30;100936.72;5060394;28;20087;-51
2023/04/08 00:20:37;;;;;;;8.32;4.00;;;;;;;6.86;60.73;100940.09;5065872;28;20133;-54
2023/04/08 00:23:05;;;;;;;10.18;4.25;;;;;;;6.84;62.10;100936.63;5065004;28;20126;-52
2023/04/08 00:25:33;;;;;;;7.13;3.75;;;;;;;6.80;60.62;100924.50;5065197;28;20109;-53
2023/04/08 00:28:02;;;;;;;8.73;4.40;;;;;;;6.78;61.44;100929.59;5064917;28;20041;-50
2023/04/08 00:30:30;;;;;;;8.23;4.07;;;;;;;6.76;61.16;100925.25;5065796;28;20048;-49
2023/04/08 00:33:00;;;;;;;7.38;3.88;;;;;;;6.72;60.95;100926.00;5065223;28;20495;-52
2023/04/08 00:35:29;;;;;;;9.02;4.18;;;;;;;6.69;61.51;100932.78;5061185;28;20044;-47
2023/04/08 00:37:57;;;;;;;8.98;4.32;;;;;;;6.66;62.16;100927.56;5062333;28;20040;-52
2023/04/08 00:40:26;;;;;;;8.65;3.67;;;;;;;6.63;61.27;100927.50;5064646;28;20067;-54
2023/04/08 00:42:57;;;;;;;8.63;3.95;;;;;;;6.62;61.93;100925.72;5064365;28;20407;-53
2023/04/08 00:45:25;;;;;;;9.43;4.32;;;;;;;6.59;61.29;100932.50;5062439;28;20049;-52
2023/04/08 00:47:55;;;;;;;8.95;3.90;;;;;;;6.55;61.53;100932.41;5065816;28;20066;-51
2023/04/08 00:50:24;;;;;;;9.95;4.25;;;;;;;6.52;60.80;100928.91;5064974;28;20067;-53
2023/04/08 00:52:52;;;;;;;7.75;3.97;;;;;;;6.48;61.84;100930.50;5059951;28;20097;-52
2023/04/08 00:55:20;;;;;;;11.43;4.88;;;;;;;6.45;62.03;100922.69;5063956;28;20060;-49
2023/04/08 00:57:48;;;;;;;6.78;3.72;;;;;;;6.41;61.59;100932.03;5063802;28;20727;-49
2023/04/08 01:00:15;;;;;;;8.18;4.10;;;;;;;6.39;62.18;100928.53;5065962;28;20127;-55
2023/04/08 01:02:56;;;;;;;9.90;4.75;;;;;;;6.36;62.67;100928.47;5064062;28;20481;-54
2023/04/08 01:08:04;;;;;;;10.57;4.75;;;;;;;6.31;61.86;100924.84;5014531;28;20399;-51
2023/04/08 01:10:33;;;;;;;8.32;4.35;;;;;;;6.28;61.76;100935.06;4996816;28;20077;-54
2023/04/08 01:13:08;;;;;;;8.88;4.63;;;;;;;6.25;62.74;100933.28;5010025;28;20046;-54
2023/04/08 01:15:38;;;;;;;9.25;4.75;;;;;;;6.21;61.93;100935.72;5018876;28;20061;-55
2023/04/08 01:18:09;;;;;;;7.85;4.03;;;;;;;6.16;62.80;100933.91;5003989;28;20101;-51
2023/04/08 01:20:37;;;;;;;8.98;4.68;;;;;;;6.13;62.67;100935.47;5001747;28;20050;-52
2023/04/08 01:25:46;;;;;;;9.48;4.30;;;;;;;6.08;62.83;100937.06;5027514;27;20437;-51
2023/04/08 01:28:16;;;;;;;8.60;4.75;;;;;;;6.06;62.94;100937.00;4997975;28;20078;-49
2023/04/08 01:30:44;;;;;;;9.85;4.38;;;;;;;6.05;62.00;100935.28;5003312;28;20054;-50
2023/04/08 01:33:14;;;;;;;10.18;4.80;;;;;;;6.01;63.24;100931.69;5004039;28;20104;-52
2023/04/08 01:35:40;;;;;;;9.43;4.50;;;;;;;6.01;62.43;100939.41;5001687;28;20042;-50
2023/04/08 01:38:10;;;;;;;10.32;4.88;;;;;;;5.99;62.43;100937.59;5003785;28;20049;-53
2023/04/08 01:40:39;;;;;;;9.73;4.40;;;;;;;5.98;63.24;100930.72;5002311;28;20046;-56
2023/04/08 01:43:07;;;;;;;10.63;4.28;;;;;;;5.96;62.80;100937.50;5002397;28;20088;-49
2023/04/08 01:45:34;;;;;;;9.90;4.55;;;;;;;5.93;63.43;100933.16;4997886;28;20078;-47
2023/04/08 01:48:02;;;;;;;8.05;3.97;;;;;;;5.91;63.09;100940.81;4995926;28;20046;-51
2023/04/08 01:50:30;;;;;;;10.15;4.60;;;;;;;5.88;63.54;100943.28;5000772;28;20092;-49
2023/04/08 01:52:59;;;;;;;7.28;4.10;;;;;;;5.86;62.32;100936.34;4997274;28;20054;-50
2023/04/08 01:55:27;;;;;;;10.88;4.60;;;;;;;5.83;62.69;100936.25;4999776;28;20472;-50
2023/04/08 01:57:57;;;;;;;11.93;4.72;;;;;;;5.78;63.73;100939.56;4996707;28;20047;-49
2023/04/08 02:00:28;;;;;;;10.43;4.60;;;;;;;5.75;62.49;100943.75;4995616;28;20046;-53
2023/04/08 02:02:56;;;;;;;9.63;4.25;;;;;;;5.72;63.15;100953.91;4993847;28;20084;-51
2023/04/08 02:05:23;;;;;;;11.07;5.13;;;;;;;5.68;62.85;100949.50;4994046;28;20549;-50
2023/04/08 02:07:50;;;;;;;9.45;4.63;;;;;;;5.63;63.21;100951.91;4999936;28;20104;-49
2023/04/08 02:10:17;;;;;;;8.68;4.50;;;;;;;5.61;63.08;100954.44;4999957;28;20054;-50
2023/04/08 02:12:45;;;;;;;8.57;5.25;;;;;;;5.56;62.44;100947.41;5000751;28;20045;-53
2023/04/08 02:15:13;;;;;;;9.88;4.53;;;;;;;5.52;63.56;100947.34;4998296;28;20485;-53
2023/04/08 02:17:45;;;;;;;9.02;5.05;;;;;;;5.48;63.15;100950.63;4998123;28;20101;-51
2023/04/08 02:20:18;;;;;;;10.85;4.80;;;;;;;5.45;62.71;100954.78;5001791;28;20050;-47
2023/04/08 02:22:57;;;;;;;10.10;4.55;;;;;;;5.40;63.79;100952.03;4995923;28;20078;-51
2023/04/08 02:25:26;;;;;;;10.63;4.07;;;;;;;5.38;62.95;100958.84;5001175;28;20100;-47
2023/04/08 02:27:54;;;;;;;7.88;4.72;;;;;;;5.33;62.91;100956.09;5005415;28;20108;-46
2023/04/08 02:30:24;;;;;;;9.25;4.82;;;;;;;5.30;63.81;100958.56;4993379;28;20133;-55
2023/04/08 02:32:53;;;;;;;12.30;4.20;;;;;;;5.24;63.15;100960.94;5003737;28;20038;-51
2023/04/08 02:35:19;;;;;;;9.80;4.45;;;;;;;5.20;63.40;100951.41;4994669;28;20501;-53
2023/04/08 02:37:47;;;;;;;9.65;4.28;;;;;;;5.14;63.14;100954.63;4983775;28;20050;-53
2023/04/08 02:40:24;;;;;;;8.02;3.97;;;;;;;5.09;64.03;100957.03;4991185;28;20082;-49
2023/04/08 02:42:50;;;;;;;9.57;4.60;;;;;;;5.07;63.45;100962.94;4984493;28;20055;-55
2023/04/08 02:45:17;;;;;;;7.72;4.18;;;;;;;5.03;63.24;100961.94;4981252;28;20125;-53
2023/04/08 02:47:44;;;;;;;10.02;5.03;;;;;;;5.01;63.33;100963.59;4982283;28;20081;-53
2023/04/08 02:50:11;;;;;;;10.30;4.50;;;;;;;4.98;63.88;100964.38;4989044;28;20046;-54
2023/04/08 02:52:38;;;;;;;9.35;4.30;;;;;;;4.96;64.12;100965.16;4981403;28;20070;-51
2023/04/08 02:55:08;;;;;;;10.40;4.60;;;;;;;4.94;63.63;100971.91;4985063;28;20112;-53
2023/04/08 02:57:36;;;;;;;8.00;4.40;;;;;;;4.91;63.74;100972.66;4986559;28;20105;-50
2023/04/08 03:00:04;;;;;;;13.27;4.95;;;;;;;4.91;64.21;100969.22;4985174;28;20046;-49
2023/04/08 03:02:30;;;;;;;9.85;4.50;;;;;;;4.87;63.79;100974.25;4983230;28;20109;-52
2023/04/08 03:04:57;;;;;;;9.25;4.72;;;;;;;4.84;64.19;100974.16;4987814;28;20043;-53
2023/04/08 03:07:24;;;;;;;12.98;4.43;;;;;;;4.82;63.61;100972.31;4986402;28;20072;-48
2023/04/08 03:09:51;;;;;;;10.50;4.75;;;;;;;4.79;64.20;100977.38;4983152;28;20113;-51
2023/04/08 03:12:18;;;;;;;10.40;4.68;;;;;;;4.75;64.41;100976.38;4981993;28;20674;-50
2023/04/08 03:14:44;;;;;;;8.30;4.07;;;;;;;4.74;63.89;100974.63;4984279;28;20074;-52
2023/04/08 03:17:11;;;;;;;10.82;5.18;;;;;;;4.71;64.50;100979.66;4986358;28;20077;-53
2023/04/08 03:19:37;;;;;;;10.13;4.47;;;;;;;4.69;64.31;100982.16;4986179;28;20137;-54
2023/04/08 03:22:04;;;;;;;8.75;4.22;;;;;;;4.67;64.14;100983.81;4982428;28;20073;-51
2023/04/08 03:24:31;;;;;;;11.25;4.68;;;;;;;4.66;64.16;100981.19;4984340;28;20104;-52
2023/04/08 03:26:57;;;;;;;10.27;4.40;;;;;;;4.63;64.05;100979.38;4980254;28;20077;-50
2023/04/08 03:29:24;;;;;;;11.32;4.85;;;;;;;4.61;63.55;100989.59;4978463;28;20085;-53
2023/04/08 03:31:51;;;;;;;13.23;4.82;;;;;;;4.60;64.64;100986.97;4986985;28;20291;-50
2023/04/08 03:34:17;;;;;;;9.48;4.43;;;;;;;4.56;64.41;100990.25;4988347;28;20046;-50
2023/04/08 03:36:44;;;;;;;13.15;4.63;;;;;;;4.54;64.72;100990.19;4985094;28;20070;-52
2023/04/08 03:39:10;;;;;;;9.73;4.55;;;;;;;4.50;64.73;100988.31;4985922;28;20050;-52
2023/04/08 03:41:37;;;;;;;9.73;4.53;;;;;;;4.46;64.90;100989.03;4988322;28;20073;-51
2023/04/08 03:44:04;;;;;;;9.18;4.10;;;;;;;4.45;64.89;100992.38;4986178;28;20132;-50
2023/04/08 03:46:30;;;;;;;13.38;4.53;;;;;;;4.42;65.09;100999.97;4988641;28;20078;-52
2023/04/08 03:48:57;;;;;;;8.07;4.45;;;;;;;4.40;64.93;100993.91;4983871;28;20561;-53
2023/04/08 03:51:24;;;;;;;10.20;3.97;;;;;;;4.37;64.80;100985.28;4982743;28;20042;-51
2023/04/08 03:53:50;;;;;;;8.88;4.25;;;;;;;4.34;64.80;100987.75;4984930;28;20104;-50
2023/04/08 03:56:17;;;;;;;11.88;4.82;;;;;;;4.32;64.84;100994.50;4985722;28;20050;-51
2023/04/08 03:58:43;;;;;;;9.45;4.25;;;;;;;4.31;65.01;101000.44;4987038;28;20093;-49
2023/04/08 04:01:10;;;;;;;8.48;4.88;;;;;;;4.27;64.96;100998.56;4985361;28;20073;-55
2023/04/08 04:03:36;;;;;;;9.65;5.60;;;;;;;4.27;65.12;100998.56;4989487;28;22613;-52
2023/04/08 04:06:03;;;;;;;8.40;4.20;;;;;;;4.24;64.90;100995.88;4986014;28;20061;-51
2023/04/08 04:08:30;;;;;;;11.75;4.40;;;;;;;4.22;64.90;100993.25;4982670;28;20054;-49
2023/04/08 04:10:58;;;;;;;9.65;4.18;;;;;;;4.21;65.14;100995.75;4980557;28;20141;-49
2023/04/08 04:13:24;;;;;;;10.75;4.95;;;;;;;4.19;64.84;100994.84;4979599;28;20070;-50
2023/04/08 04:15:51;;;;;;;10.43;4.65;;;;;;;4.16;65.18;101004.97;4981164;28;20047;-53
2023/04/08 04:18:18;;;;;;;11.27;4.70;;;;;;;4.14;65.11;101006.59;4980725;28;20108;-50
2023/04/08 04:20:44;;;;;;;13.23;4.80;;;;;;;4.13;65.18;101009.97;4983201;28;20047;-50
2023/04/08 04:23:11;;;;;;;9.25;4.25;;;;;;;4.11;65.44;101013.38;4982099;28;20074;-55
2023/04/08 04:25:40;;;;;;;8.75;4.88;;;;;;;4.11;65.30;101017.59;4983650;28;20178;-55
2023/04/08 04:28:08;;;;;;;9.57;4.80;;;;;;;4.10;65.14;101016.75;4978048;28;20050;-54
2023/04/08 04:30:37;;;;;;;10.02;5.03;;;;;;;4.08;65.11;101010.66;4981998;28;20062;-52
2023/04/08 04:33:04;;;;;;;10.68;5.13;;;;;;;4.06;65.35;101019.97;4982802;28;20054;-51
2023/04/08 04:35:31;;;;;;;9.38;4.65;;;;;;;4.03;65.14;101014.75;4984245;28;20445;-56
2023/04/08 04:37:58;;;;;;;10.23;4.57;;;;;;;4.02;65.84;101023.22;4989111;28;20100;-54
2023/04/08 04:40:25;;;;;;;10.50;5.03;;;;;;;4.01;65.77;101020.66;4981903;28;20070;-51
2023/04/08 04:42:52;;;;;;;10.95;4.55;;;;;;;3.97;65.86;101022.19;4977178;28;20042;-50
2023/04/08 04:45:19;;;;;;;9.77;5.22;;;;;;;3.96;65.27;101028.13;4983906;28;20042;-51
2023/04/08 04:47:45;;;;;;;10.20;4.63;;;;;;;3.94;65.21;101029.75;4983862;28;20054;-50
2023/04/08 04:50:12;;;;;;;9.65;4.25;;;;;;;3.91;65.88;101030.50;4984377;28;20050;-54
2023/04/08 04:52:40;;;;;;;9.80;4.85;;;;;;;3.89;65.68;101031.25;4981799;28;20051;-51
2023/04/08 04:55:07;;;;;;;8.55;4.40;;;;;;;3.84;65.32;101034.50;4975744;28;20046;-51
2023/04/08 04:57:34;;;;;;;10.23;4.30;;;;;;;3.82;65.92;101041.25;4979679;28;20081;-52
2023/04/08 05:00:00;;;;;;;11.95;4.53;;;;;;;3.79;65.64;101046.28;4977044;28;20109;-52
2023/04/08 05:02:31;;;;;;;11.82;5.47;;;;;;;3.77;65.68;101047.88;4986655;28;20520;-51
2023/04/08 05:04:57;;;;;;;13.10;4.88;;;;;;;3.76;65.52;101048.72;4983756;28;20043;-49
2023/04/08 05:07:24;;;;;;;9.80;4.80;;;;;;;3.75;65.69;101046.06;4974899;28;20046;-53
2023/04/08 05:09:51;;;;;;;9.68;4.78;;;;;;;3.73;65.89;101053.69;4978304;28;20046;-49
2023/04/08 05:12:19;;;;;;;9.73;4.53;;;;;;;3.71;65.93;101052.75;4981248;28;20046;-49
2023/04/08 05:14:46;;;;;;;8.65;3.90;;;;;;;3.70;65.76;101045.88;4986551;28;20057;-52
2023/04/08 05:17:12;;;;;;;11.32;4.70;;;;;;;3.68;65.89;101047.53;4976282;28;20100;-49
2023/04/08 05:19:39;;;;;;;11.18;4.63;;;;;;;3.67;66.16;101056.00;4979699;28;20090;-54
2023/04/08 05:22:05;;;;;;;10.90;4.60;;;;;;;3.67;65.39;101056.00;4979111;28;20038;-53
2023/04/08 05:24:32;;;;;;;9.63;4.13;;;;;;;3.64;65.57;101061.00;4984056;28;20116;-55
2023/04/08 05:27:00;;;;;;;10.05;5.00;;;;;;;3.62;66.01;101062.63;4991371;28;20073;-50
2023/04/08 05:29:26;;;;;;;13.43;4.80;;;;;;;3.60;65.58;101063.44;4980195;28;20101;-52
2023/04/08 05:31:53;;;;;;;11.88;4.68;;;;;;;3.60;66.46;101060.00;4982004;28;20081;-50
2023/04/08 05:34:21;;;;;;;12.10;5.00;;;;;;;3.60;65.79;101071.13;4985846;28;20060;-52
2023/04/08 05:36:52;;;;;;;15.20;6.57;;;;;;;3.59;65.83;101069.34;4983809;28;20478;-50
2023/04/08 05:39:19;;;;;;;;;;;;;;;3.54;67.10;101065.72;4980822;28;20073;-47
2023/04/08 05:41:46;;;;;;;10.55;4.82;;;;;;;3.59;66.77;101059.09;4985595;28;19965;-50
2023/04/08 05:44:13;;;;;;;11.18;5.75;;;;;;;3.63;66.16;101069.50;4977686;28;20384;-50
2023/04/08 05:46:39;;;;;;;11.57;5.68;;;;;;;3.65;66.28;101073.00;4982634;28;20077;-54
2023/04/08 05:49:06;;;;;;;11.40;5.55;;;;;;;3.67;66.31;101076.50;4985180;28;20058;-50
2023/04/08 05:51:33;;;;;;;13.48;6.07;;;;;;;3.69;66.75;101077.44;4979155;28;20179;-55
2023/04/08 05:53:59;;;;;;;10.65;4.80;;;;;;;3.71;66.20;101073.25;4981871;28;20046;-54
2023/04/08 05:56:26;;;;;;;12.25;5.80;;;;;;;3.73;66.93;101080.22;4981307;28;20038;-54
2023/04/08 05:58:52;;;;;;;10.65;5.45;;;;;;;3.76;66.46;101082.03;4977119;28;20046;-53
2023/04/08 06:01:19;;;;;;;12.88;5.57;;;;;;;3.79;67.04;101082.16;4982144;28;20097;-53
2023/04/08 06:03:46;;;;;;;12.77;6.57;;;;;;;3.83;66.85;101094.28;4981368;28;20788;-53
2023/04/08 06:06:13;;;;;;;23.40;5.60;;;;;;;3.88;67.07;101098.72;4983488;28;20069;-54
2023/04/08 06:08:39;;;;;;;25.17;5.38;;;;;;;3.92;66.86;101104.03;4973572;28;20129;-51
2023/04/08 06:11:06;;;;;;;64.00;5.22;;;;;;;3.93;66.68;101097.22;4978945;28;20073;-50
2023/04/08 06:13:33;;;;;;;34.80;5.20;;;;;;;3.95;67.14;101103.31;4977226;28;20074;-55
2023/04/08 06:16:10;;;;;;;11.95;4.40;;;;;;;4.00;66.59;101112.03;4984577;28;20564;-52
2023/04/08 06:18:36;;;;;;;;;;;;;;;4.02;66.63;101115.53;4984229;28;20054;-51
2023/04/08 06:21:03;;;;;;;16.27;5.15;;;;;;;4.14;66.64;101119.41;4990310;28;20545;-52
2023/04/08 06:23:30;;;;;;;16.02;4.53;;;;;;;4.22;66.59;101121.50;4986863;28;20089;-48
2023/04/08 06:25:57;;;;;;;20.25;5.63;;;;;;;4.30;66.11;101115.78;4986277;28;20077;-53
2023/04/08 06:28:24;;;;;;;48.95;7.18;;;;;;;4.39;66.43;101115.28;4981673;28;20074;-56
2023/04/08 06:30:50;;;;;;;42.05;6.55;;;;;;;4.44;66.82;101119.78;4987051;28;20070;-56
2023/04/08 06:33:17;;;;;;;43.05;7.00;;;;;;;4.49;66.55;101114.81;4988448;28;20074;-54
2023/04/08 06:35:43;;;;;;;39.47;6.00;;;;;;;4.57;66.72;101121.16;4985961;28;20078;-49
2023/04/08 06:38:10;;;;;;;22.55;5.97;;;;;;;4.65;66.54;101128.25;4986297;28;20685;-54
2023/04/08 06:40:38;;;;;;;13.82;6.22;;;;;;;4.73;66.89;101134.59;4978803;28;20140;-56
2023/04/08 06:43:06;;;;;;;34.53;6.28;;;;;;;4.78;66.63;101127.94;4976125;28;20066;-48
2023/04/08 06:45:33;;;;;;;18.25;5.75;;;;;;;4.83;66.91;101130.69;4980911;28;20100;-48
2023/04/08 06:48:01;;;;;;;30.63;6.10;;;;;;;4.89;67.22;101129.22;4979512;28;20051;-53
2023/04/08 06:50:27;;;;;;;23.42;5.90;;;;;;;4.94;67.06;101126.84;4989693;28;20046;-53
2023/04/08 06:52:54;;;;;;;21.58;5.95;;;;;;;5.02;67.25;101129.69;4983763;28;20097;-49
2023/04/08 06:55:20;;;;;;;24.27;6.72;;;;;;;5.07;67.06;101133.28;4982982;28;20046;-49
2023/04/08 06:57:47;;;;;;;46.05;6.85;;;;;;;5.12;66.99;101128.31;4978128;28;20074;-47
2023/04/08 07:00:14;;;;;;;39.55;6.93;;;;;;;5.21;67.16;101125.22;4989025;28;20110;-52
2023/04/08 07:02:40;;;;;;;39.83;6.85;;;;;;;5.28;67.03;101132.34;4983404;28;20086;-51
2023/04/08 07:05:07;;;;;;;65.78;7.65;;;;;;;5.36;66.60;101133.50;4989215;28;20438;-50
2023/04/08 07:07:35;;;;;;;53.00;7.10;;;;;;;5.42;67.05;101140.56;4986402;28;20488;-50
2023/04/08 07:10:01;;;;;;;31.55;6.65;;;;;;;5.53;67.55;101135.78;4980940;28;20105;-51
2023/04/08 07:12:28;;;;;;;60.50;6.93;;;;;;;5.73;67.41;101135.59;4981794;28;20141;-51
2023/04/08 07:14:54;;;;;;;53.08;8.48;;;;;;;5.99;66.22;101144.25;4984132;28;20705;-49
2023/04/08 07:17:21;;;;;;;45.90;7.32;;;;;;;6.25;67.23;101140.81;4979054;28;20081;-49
2023/04/08 07:19:48;;;;;;;31.80;7.30;;;;;;;6.40;66.87;101146.47;4984178;28;20104;-47
2023/04/08 07:22:15;;;;;;;42.72;7.32;;;;;;;6.58;67.31;101145.28;4975323;28;20163;-49
2023/04/08 07:24:44;;;;;;;27.33;7.43;;;;;;;6.81;67.51;101158.00;4985465;28;20054;-48
2023/04/08 07:27:11;;;;;;;24.52;6.70;;;;;;;7.15;67.42;101151.28;4980438;28;20050;-50
2023/04/08 07:29:37;;;;;;;22.75;7.60;;;;;;;7.51;65.85;101147.13;4985526;28;20086;-51
2023/04/08 07:32:04;;;;;;;26.35;8.85;;;;;;;7.88;66.82;101149.81;4990664;28;20050;-47
2023/04/08 07:34:33;;;;;;;23.08;8.75;;;;;;;8.31;65.75;101151.75;4982101;28;20077;-47
2023/04/08 07:37:00;;;;;;;23.13;7.13;;;;;;;8.79;66.05;101152.00;4984058;28;20078;-53
2023/04/08 07:39:27;;;;;;;24.52;7.55;;;;;;;9.12;65.39;101163.94;4984322;28;20038;-52
2023/04/08 07:41:53;;;;;;;17.50;7.65;;;;;;;9.45;64.89;101162.00;4981622;28;20124;-52
2023/04/08 07:44:20;;;;;;;17.88;7.55;;;;;;;9.75;64.90;101163.44;4983805;28;20046;-51
2023/04/08 07:46:50;;;;;;;17.00;7.47;;;;;;;10.10;64.01;101162.34;4986601;28;20042;-50
2023/04/08 07:49:17;;;;;;;18.55;7.93;;;;;;;10.39;63.54;101170.59;4984089;28;20052;-54
2023/04/08 07:51:43;;;;;;;16.83;7.88;;;;;;;10.58;62.88;101178.69;4978944;28;20078;-54
2023/04/08 07:54:15;;;;;;;15.88;7.25;;;;;;;10.65;62.91;101177.06;4978287;28;20094;-56
2023/04/08 07:56:43;;;;;;;15.48;6.45;;;;;;;10.54;63.44;101185.50;4986694;28;20038;-50
2023/04/08 07:59:10;;;;;;;16.23;6.95;;;;;;;10.45;63.48;101184.50;4975026;28;20383;-54
2023/04/08 08:01:37;;;;;;;15.63;7.50;;;;;;;10.25;62.54;101182.44;4988516;28;20398;-53
2023/04/08 08:04:04;;;;;;;13.18;5.32;;;;;;;10.03;63.27;101182.91;4987102;28;20049;-53
2023/04/08 08:06:31;;;;;;;14.60;6.22;;;;;;;9.84;62.91;101183.44;4983446;28;20421;-51
2023/04/08 08:08:59;;;;;;;19.58;8.05;;;;;;;9.69;63.67;101179.72;4984477;28;20078;-54
2023/04/08 08:11:27;;;;;;;21.10;8.23;;;;;;;9.56;64.21;101177.75;4986927;28;20054;-53
2023/04/08 08:13:53;;;;;;;20.48;8.10;;;;;;;9.40;64.26;101185.19;4987249;28;20132;-54
2023/04/08 08:16:20;;;;;;;22.98;8.50;;;;;;;9.36;64.41;101193.72;4985515;28;20046;-50
2023/04/08 08:18:47;;;;;;;22.27;9.57;;;;;;;9.51;64.69;101194.03;4979547;28;20050;-56
2023/04/08 08:21:14;;;;;;;18.92;9.40;;;;;;;9.84;64.73;101196.38;4982275;28;20446;-56
2023/04/08 08:23:41;;;;;;;17.92;8.40;;;;;;;10.40;64.62;101198.22;4985454;28;20089;-55
2023/04/08 08:26:08;;;;;;;20.10;9.30;;;;;;;10.78;64.38;101199.69;4988126;28;20081;-53
2023/04/08 08:28:36;;;;;;;19.25;8.43;;;;;;;11.20;63.69;101202.00;4981405;28;20061;-52
2023/04/08 08:31:04;;;;;;;18.33;8.13;;;;;;;11.41;63.38;101210.91;4986310;28;20042;-55
2023/04/08 08:33:32;;;;;;;17.45;8.55;;;;;;;11.64;62.14;101208.59;4981560;28;20054;-55
2023/04/08 08:35:58;;;;;;;17.20;8.57;;;;;;;12.00;62.12;101211.59;4976835;28;20047;-54
2023/04/08 08:38:26;;;;;;;18.20;8.07;;;;;;;12.29;61.20;101208.41;4982829;28;20065;-57
2023/04/08 08:40:55;;;;;;;17.25;7.43;;;;;;;12.46;60.99;101210.28;4987911;28;20465;-54
2023/04/08 08:43:22;;;;;;;15.68;7.75;;;;;;;12.69;61.25;101227.78;4982248;28;20050;-56
2023/04/08 08:45:49;;;;;;;14.55;7.80;;;;;;;12.76;59.78;101224.38;4982603;28;20182;-55
2023/04/08 08:48:16;;;;;;;18.88;9.15;;;;;;;12.92;60.33;101219.25;4983078;28;20046;-53
2023/04/08 08:50:43;;;;;;;16.10;7.75;;;;;;;12.89;60.44;101216.63;4978839;28;20114;-54
2023/04/08 08:53:09;;;;;;;15.57;7.95;;;;;;;12.82;59.89;101221.81;4983972;28;20058;-57
2023/04/08 08:55:38;;;;;;;19.08;8.50;;;;;;;12.70;59.92;101219.13;4981089;28;20054;-54
2023/04/08 08:58:26;;;;;;;15.77;8.10;;;;;;;12.88;61.46;101221.00;4979888;28;20495;-53
2023/04/08 09:00:53;;;;;;;19.17;8.27;;;;;;;13.12;61.17;101222.00;5002041;28;20883;-55
2023/04/08 09:03:26;;;;;;;19.17;9.77;;;;;;;13.31;60.71;101217.75;4979034;28;20085;-55
2023/04/08 09:05:56;;;;;;;18.30;8.95;;;;;;;13.26;60.36;101219.47;4981226;28;20050;-55
2023/04/08 09:08:32;;;;;;;17.73;8.48;;;;;;;13.13;59.79;101222.88;4979474;28;20073;-55
2023/04/08 09:11:21;;;;;;;17.38;8.05;;;;;;;12.91;60.36;101214.94;4985420;28;20527;-56
2023/04/08 09:13:48;;;;;;;19.70;9.70;;;;;;;12.99;60.25;101223.66;4978869;28;20403;-55
2023/04/08 09:16:17;;;;;;;16.17;8.13;;;;;;;13.12;61.16;101216.78;4981549;28;20133;-55
2023/04/08 09:18:46;;;;;;;21.50;9.45;;;;;;;13.31;60.27;101216.91;4971520;28;20051;-56
2023/04/08 09:21:14;;;;;;;16.80;8.32;;;;;;;13.54;61.19;101219.59;4975009;28;20046;-52
2023/04/08 09:23:50;;;;;;;17.52;8.82;;;;;;;13.77;60.61;101216.22;4985013;28;20066;-49
2023/04/08 09:26:18;;;;;;;;;;;;;;;13.81;59.94;101217.09;4969927;28;20046;-55
2023/04/08 09:31:37;;;;;;;14.20;7.85;;;;;;;14.29;59.67;101229.34;5071752;27;20400;-50
2023/04/08 09:34:14;;;;;;;17.00;8.05;;;;;;;14.44;58.99;101223.25;5044450;28;20052;-56
2023/04/08 09:36:40;;;;;;;17.15;8.48;;;;;;;14.56;58.79;101225.84;5042031;28;20056;-54
2023/04/08 09:39:07;;;;;;;15.77;7.80;;;;;;;14.80;57.80;101231.97;5044012;28;20081;-51
2023/04/08 09:41:35;;;;;;;16.35;8.32;;;;;;;15.03;57.97;101225.84;5044323;28;20149;-56
2023/04/08 09:44:04;;;;;;;14.50;6.10;;;;;;;15.05;57.28;101229.28;5043369;28;20115;-52
2023/04/08 09:46:38;;;;;;;12.57;6.82;;;;;;;15.15;57.00;101222.31;5043403;28;20073;-55
2023/04/08 09:49:21;;;;;;;14.43;6.95;;;;;;;15.21;57.13;101224.03;5057853;28;20049;-54
2023/04/08 09:52:13;;;;;;;13.88;6.93;;;;;;;15.34;56.65;101227.47;5043643;28;20547;-53
2023/04/08 09:54:52;;;;;;;12.77;6.30;;;;;;;15.34;55.63;101222.25;5059552;28;20087;-56
2023/04/08 09:57:25;;;;;;;14.40;6.80;;;;;;;15.54;55.62;101219.56;5044101;28;20136;-51
2023/04/08 10:00:04;;;;;;;11.45;6.18;;;;;;;15.52;54.19;101223.91;5063242;28;20068;-53
2023/04/08 10:02:38;;;;;;;11.07;5.28;;;;;;;15.55;54.55;101222.19;5062288;28;20140;-51
2023/04/08 10:05:06;;;;;;;14.50;6.70;;;;;;;15.76;54.91;101225.53;5059293;28;20131;-55
2023/04/08 10:07:34;;;;;;;15.55;7.25;;;;;;;15.93;55.07;101221.97;5063086;28;20052;-56
2023/04/08 10:10:02;;;;;;;14.05;6.95;;;;;;;16.18;55.84;101217.47;5056925;28;20134;-54
2023/04/08 10:12:29;;;;;;;10.88;5.40;;;;;;;16.27;54.27;101211.31;5060405;28;20656;-55
2023/04/08 10:15:26;;;;;;;18.55;7.60;;;;;;;16.22;53.06;101210.47;5060434;28;20080;-56
2023/04/08 10:17:56;;;;;;;13.10;5.50;;;;;;;16.12;52.95;101209.69;5058080;28;20055;-54
2023/04/08 10:23:15;;;;;;;10.63;7.10;;;;;;;16.22;53.23;101213.09;5056640;28;20378;-57
2023/04/08 10:30:56;;;;;;;11.73;5.45;;;;;;;15.87;52.21;101211.56;5042566;27;20503;-57
2023/04/08 10:33:33;;;;;;;10.52;6.63;;;;;;;15.94;53.34;101205.41;5019251;28;20045;-54
2023/04/08 10:36:16;;;;;;;9.40;3.88;;;;;;;15.97;50.83;101207.19;5039895;28;20077;-54
2023/04/08 10:38:43;;;;;;;12.32;5.90;;;;;;;16.05;51.76;101208.00;5005586;28;20052;-54
2023/04/08 10:41:12;;;;;;;9.05;5.25;;;;;;;16.16;52.30;101214.00;5005883;28;20038;-51
2023/04/08 10:43:39;;;;;;;11.18;4.93;;;;;;;16.24;51.61;101210.47;5017059;28;20132;-54
2023/04/08 10:46:10;;;;;;;9.40;4.72;;;;;;;16.28;51.57;101218.25;5013438;28;20077;-53
2023/04/08 10:48:37;;;;;;;10.20;6.15;;;;;;;16.42;52.91;101214.69;4996132;28;20714;-55
2023/04/08 10:51:04;;;;;;;9.13;3.90;;;;;;;16.55;51.59;101210.22;5006802;28;20053;-54
2023/04/08 10:56:13;;;;;;;6.93;3.72;;;;;;;16.85;51.22;101212.53;5015766;27;20408;-53
2023/04/08 11:01:26;;;;;;;11.13;6.70;;;;;;;17.05;51.10;101205.38;5031034;28;20402;-53
2023/04/08 11:03:53;;;;;;;8.45;5.50;;;;;;;16.96;48.86;101206.28;5004428;28;20057;-53
2023/04/08 11:06:20;;;;;;;10.65;5.47;;;;;;;16.98;49.61;101208.06;5004134;28;20137;-54
2023/04/08 11:08:47;;;;;;;11.07;6.05;;;;;;;17.11;49.87;101211.41;5014416;28;20042;-56
2023/04/08 11:11:14;;;;;;;7.78;5.30;;;;;;;17.12;49.57;101200.91;5012416;28;20132;-52
2023/04/08 11:13:44;;;;;;;10.63;7.10;;;;;;;17.06;49.04;101203.63;5007397;28;20045;-51
2023/04/08 11:16:20;;;;;;;8.77;5.90;;;;;;;16.98;48.58;101193.19;5005127;28;20080;-53
2023/04/08 11:18:48;;;;;;;9.48;5.97;;;;;;;16.77;49.30;101195.16;5011881;28;20046;-56
2023/04/08 11:21:16;;;;;;;12.95;7.35;;;;;;;16.66;48.62;101200.53;5005714;28;20097;-54
2023/04/08 11:23:42;;;;;;;11.10;6.03;;;;;;;16.63;49.27;101187.47;5010541;28;20050;-53
2023/04/08 11:26:10;;;;;;;10.52;6.70;;;;;;;16.76;49.52;101182.97;5001951;28;20749;-53
2023/04/08 11:28:37;;;;;;;11.25;6.68;;;;;;;16.96;49.79;101187.13;5012245;28;20049;-51
2023/04/08 11:31:04;;;;;;;8.95;4.95;;;;;;;17.08;49.37;101183.53;5006981;28;20450;-50
2023/04/08 11:33:31;;;;;;;9.75;6.15;;;;;;;17.16;48.94;101192.16;5004423;28;20049;-50
2023/04/08 11:36:00;;;;;;;12.52;6.82;;;;;;;17.15;48.58;101179.94;5003641;28;20140;-55
2023/04/08 11:38:28;;;;;;;12.57;6.38;;;;;;;17.17;48.28;101188.66;5002813;28;20046;-56
2023/04/08 11:40:58;;;;;;;11.13;6.95;;;;;;;17.31;48.31;101185.00;5011843;28;20467;-56
2023/04/08 11:43:26;;;;;;;13.70;6.40;;;;;;;17.62;49.10;101178.50;5001742;28;20391;-53
2023/04/08 11:45:52;;;;;;;10.23;6.68;;;;;;;17.80;48.39;101172.97;5009118;28;20050;-54
2023/04/08 11:48:19;;;;;;;9.80;6.10;;;;;;;17.75;46.60;101181.78;5008909;28;20112;-55
2023/04/08 11:50:46;;;;;;;8.55;5.95;;;;;;;17.79;48.10;101179.09;5006483;28;20038;-52
2023/04/08 11:55:53;;;;;;;9.10;3.55;;;;;;;17.94;46.34;101175.38;5076478;27;20402;-49